SCC: Utah: Final practice times

Pos Num Class Team Time Gap To 1st Speed --- --- ----- ------------------------------ ---------- ------- ------- ------- 1. 96 GS Turner Motorsport 3:11.496 84.334 2. 09...

Pos Num Class Team                                 Time     Gap  To 1st   Speed
--- --- ----- ------------------------------ ---------- ------- ------- -------
 1.  96 GS    Turner Motorsport                3:11.496                  84.334
 2.  09 GS    Automatic Racing                 3:11.904   0.408   0.408  84.155
 3.  41 GS    TRG                              3:12.309   0.405   0.813  83.977
 4.  97 GS    Turner Motorsport                3:12.326   0.017   0.830  83.970
 5.  42 GS    TRG                              3:12.376   0.050   0.880  83.948
 6.  49 GS    Marcus Motorsports               3:12.461   0.085   0.965  83.911
 7.  80 GS    Kinetic Motorsports              3:12.504   0.043   1.008  83.892
 8.  38 GS    BGB Motorsports                  3:12.856   0.352   1.360  83.739
 9.  46 GS    Fall-Line Motorsports            3:12.864   0.008   1.368  83.736
10. 154 GS    Rehagen Racing                   3:12.986   0.122   1.490  83.683
11.  25 GS    Fiorano/C-MAX Racing             3:13.121   0.135   1.625  83.624
12.  39 GS    TRG                              3:13.592   0.471   2.096  83.421
13.  55 GS    Hyper Sport                      3:13.714   0.122   2.218  83.368
14.  40 GS    TRG                              3:13.917   0.203   2.421  83.281
15.  79 GS    Kinetic Motorsports              3:14.083   0.166   2.587  83.210
16.  99 GS    Automatic Racing                 3:14.097   0.014   2.601  83.204
17. 156 GS    Hyper Sport                      3:14.244   0.147   2.748  83.141
18. 137 GS    JBS Motorsports                  3:14.438   0.194   2.942  83.058
19.  90 GS    Automatic Racing                 3:14.472   0.034   2.976  83.043
20.  91 GS    Automatic Racing                 3:14.744   0.272   3.248  82.927
21.  87 GS    Marcus Motorsports               3:14.907   0.163   3.411  82.858
22.  52 GS    Rehagen Racing                   3:14.911   0.004   3.415  82.856
23.  28 GS    Fall-Line Motorsports            3:15.036   0.125   3.540  82.803
24.  17 GS    Team Centurion                   3:15.136   0.100   3.640  82.761
25.  59 GS    Rehagen Racing                   3:15.454   0.318   3.958  82.626
26. 199 GS    Bush Decor and Construction      3:15.588   0.134   4.092  82.569
27.  37 GS    JBS Racing                       3:15.652   0.064   4.156  82.542
28. 112 GS    Larry H Miller Racing            3:15.728   0.076   4.232  82.510
29.  88 GS    Ranger Sports Racing             3:15.759   0.031   4.263  82.497
30.  26 GS    Fiorano/C-MAX Racing             3:15.979   0.220   4.483  82.405
31.  54 GS    Hyper Sport                      3:16.484   0.505   4.988  82.193
32.  11 GS    Southwest Racers Group           3:17.488   1.004   5.992  81.775
33.  93 ST    GOTO Racing                      3:18.331   0.843   6.835  81.428
34.  30 GS    ACG Motorsports                  3:18.796   0.465   7.300  81.237
35.  22 ST    HART                             3:19.796   1.000   8.300  80.830
36.  76 ST    Kensai Racing                    3:20.097   0.301   8.601  80.709
37. 111 ST    ICY/ Phoenix Racing              3:20.422   0.325   8.926  80.578
38.  89 GS    Ranger Sports Racing             3:20.575   0.153   9.079  80.517
39.  01 ST    Georgian Bay Motorsports         3:20.621   0.046   9.125  80.498
40. 141 ST    ICY/ Phoenix Racing              3:21.029   0.408   9.533  80.335
41.  95 ST    Turner Motorsport                3:21.181   0.152   9.685  80.274
42.  53 ST    Predator Auto Sport              3:21.355   0.174   9.859  80.205
43.  69 ST    SpeedSource                      3:21.369   0.014   9.873  80.199
44. 198 ST    RSR Motorsports                  3:21.467   0.098   9.971  80.160
45.  58 ST    BSI Racing                       3:21.765   0.298  10.269  80.042
46.  85 ST    Classic BMW - Plano              3:21.932   0.167  10.436  79.975
47.  32 ST    i-MOTO Racing                    3:22.008   0.076  10.512  79.945
48.  63 ST    Roar Racing                      3:22.209   0.201  10.713  79.866
49.  31 ST    i-MOTO Racing                    3:22.251   0.042  10.755  79.849
50. 138 ST    GS Motorsports                   3:22.716   0.465  11.220  79.666
51. 127 ST    Fountain Motorsports             3:22.729   0.013  11.233  79.661
52.  56 ST    BSI Racing                       3:22.864   0.135  11.368  79.608
53.  74 ST    Kensai Racing                    3:23.317   0.453  11.821  79.431
54.  75 ST    Kensai Racing                    3:23.538   0.221  12.042  79.344
55.  62 ST    Roar Racing                      3:23.735   0.197  12.239  79.268
56.  24 ST    V-Pack Motorsport                3:24.433   0.698  12.937  78.997
57.  06 ST    Project Motorsports              3:25.766   1.333  14.270  78.485
58.  70 ST    SpeedSource                      3:26.017   0.251  14.521  78.390
59. 197 ST    RSR Motorsports                  3:26.409   0.392  14.913  78.241
60.  12 ST    Southwest Racers Group           3:28.351   1.942  16.855  77.512
61. 126 ST    Fountain Motorsports             3:28.612   0.261  17.116  77.415
62.  78 GS    Kinetic Motorsports               No Time
63.  33 GS    Playboy Racing                    No Time
64.  35 GS    Playboy Racing                    No Time
65.  51 ST    Tom Mitchell Motorsports          No Time
66.  86 ST    Classic BMW - Plano               No Time

Be part of something big

Write a comment
Show comments
About this article
Series Grand-Am
Teams Kinetic Motorsports , Rehagen Racing , Turner Motorsport , Automatic Racing , HART , Fall-Line Motorsports , SpeedSource , Phoenix Racing